createdAt,value
2019-04-30T00:02:02.693Z,57.95
2019-04-30T00:04:40.279Z,57.98
2019-04-30T00:07:10.156Z,57.83
2019-04-30T00:09:39.375Z,57.64
2019-04-30T00:12:09.666Z,57.47
2019-04-30T00:14:41.325Z,57.29
2019-04-30T00:17:18.047Z,57.15
2019-04-30T00:19:43.228Z,57.05
2019-04-30T00:22:13.298Z,56.92
2019-04-30T00:24:46.791Z,56.77
2019-04-30T00:27:15.227Z,56.85
2019-04-30T00:29:45.766Z,56.88
2019-04-30T00:32:16.117Z,56.94
2019-04-30T00:34:46.145Z,56.92
2019-04-30T00:37:18.868Z,56.81
2019-04-30T00:39:51.042Z,56.82
2019-04-30T00:42:24.498Z,56.71
2019-04-30T00:44:51.689Z,56.57
2019-04-30T00:47:21.761Z,56.47
2019-04-30T00:49:52.117Z,56.35
2019-04-30T00:52:25.198Z,56.22
2019-04-30T00:54:55.438Z,56.13
2019-04-30T00:57:26.509Z,56.08
2019-04-30T00:59:56.509Z,55.94
2019-04-30T01:02:36.549Z,55.85
2019-04-30T01:05:10.511Z,55.78
2019-04-30T01:07:47.935Z,55.72
2019-04-30T01:10:12.778Z,55.83
2019-04-30T01:12:47.360Z,55.82
2019-04-30T01:15:15.585Z,55.86
2019-04-30T01:17:51.102Z,55.92
2019-04-30T01:20:19.247Z,55.91
2019-04-30T01:22:49.118Z,55.72
2019-04-30T01:25:20.781Z,55.67
2019-04-30T01:27:51.851Z,55.75
2019-04-30T01:30:22.847Z,55.74
2019-04-30T01:32:56.634Z,55.75
2019-04-30T01:35:30.937Z,55.70
2019-04-30T01:37:56.693Z,55.58
2019-04-30T01:40:28.466Z,55.40
2019-04-30T01:42:59.304Z,55.39
2019-04-30T01:45:31.615Z,55.38
2019-04-30T01:48:08.774Z,55.34
2019-04-30T01:50:38.641Z,55.18
2019-04-30T01:53:11.451Z,55.08
2019-04-30T01:55:56.869Z,55.38
2019-04-30T01:59:04.031Z,55.37
2019-04-30T02:01:35.156Z,55.79
2019-04-30T02:04:05.211Z,56.01
2019-04-30T02:06:35.250Z,56.18
2019-04-30T02:09:06.178Z,56.11
2019-04-30T02:11:36.373Z,55.97
2019-04-30T02:14:06.438Z,56.00
2019-04-30T02:16:36.517Z,56.32
2019-04-30T02:19:06.559Z,56.50
2019-04-30T02:21:38.273Z,56.65
2019-04-30T02:24:11.019Z,56.72
2019-04-30T02:26:40.277Z,56.65
2019-04-30T02:29:10.340Z,56.44
2019-04-30T02:31:40.871Z,56.36
2019-04-30T02:34:22.206Z,56.20
2019-04-30T02:37:09.789Z,56.03
2019-04-30T02:39:40.265Z,55.79
2019-04-30T02:42:13.227Z,55.66
2019-04-30T02:44:42.665Z,55.52
2019-04-30T02:47:12.716Z,55.49
2019-04-30T02:49:43.040Z,55.43
2019-04-30T02:52:13.335Z,55.33
2019-04-30T02:54:43.751Z,55.04
2019-04-30T02:57:14.358Z,55.04
2019-04-30T03:00:01.953Z,55.35
2019-04-30T03:02:33.583Z,55.61
2019-04-30T03:05:03.673Z,56.13
2019-04-30T03:07:33.697Z,56.56
2019-04-30T03:10:03.756Z,56.67
2019-04-30T03:12:34.116Z,56.92
2019-04-30T03:15:04.171Z,56.95
2019-04-30T03:18:00.592Z,56.78
2019-04-30T03:20:52.458Z,56.61
2019-04-30T03:23:22.527Z,56.45
2019-04-30T03:25:52.554Z,56.26
2019-04-30T03:28:22.598Z,56.18
2019-04-30T03:30:57.800Z,56.09
2019-04-30T03:33:24.370Z,55.94
2019-04-30T03:35:55.120Z,55.73
2019-04-30T03:38:25.531Z,55.57
2019-04-30T03:40:55.554Z,55.47
2019-04-30T03:43:25.726Z,55.32
2019-04-30T03:45:55.749Z,55.18
2019-04-30T03:48:25.794Z,55.18
2019-04-30T03:50:57.156Z,55.47
2019-04-30T03:53:29.695Z,55.68
2019-04-30T03:56:01.435Z,55.82
2019-04-30T03:58:30.916Z,56.08
2019-04-30T04:01:10.173Z,56.07
2019-04-30T04:04:00.595Z,56.24
2019-04-30T04:06:39.416Z,56.83
2019-04-30T04:09:22.330Z,57.44
2019-04-30T04:11:52.187Z,57.96
2019-04-30T04:14:22.242Z,58.33
2019-04-30T04:16:52.285Z,58.56
2019-04-30T04:19:22.427Z,58.69
2019-04-30T04:21:52.462Z,58.48
2019-04-30T04:24:22.517Z,58.14
2019-04-30T04:26:52.531Z,57.95
2019-04-30T04:29:22.577Z,57.66
2019-04-30T04:31:52.628Z,57.47
2019-04-30T04:34:22.648Z,57.36
2019-04-30T04:36:52.709Z,57.18
2019-04-30T04:39:22.743Z,57.11
2019-04-30T04:41:52.786Z,57.05
2019-04-30T04:44:22.803Z,57.05
2019-04-30T04:46:52.854Z,57.14
2019-04-30T04:49:22.875Z,57.21
2019-04-30T04:51:52.928Z,57.31
2019-04-30T04:54:22.971Z,57.61
2019-04-30T04:56:57.953Z,57.91
2019-04-30T04:59:24.757Z,58.12
2019-04-30T05:01:54.814Z,58.51
2019-04-30T05:04:24.830Z,58.60
2019-04-30T05:06:54.890Z,58.72
2019-04-30T05:09:24.931Z,58.87
2019-04-30T05:11:54.962Z,59.26
2019-04-30T05:14:25.012Z,59.29
2019-04-30T05:16:55.037Z,59.22
2019-04-30T05:19:28.627Z,59.37
2019-04-30T05:21:59.699Z,59.49
2019-04-30T05:24:29.792Z,59.48
2019-04-30T05:26:59.832Z,59.57
2019-04-30T05:29:30.102Z,59.70
2019-04-30T05:32:00.130Z,59.68
2019-04-30T05:34:30.189Z,59.63
2019-04-30T05:37:01.034Z,59.74
2019-04-30T05:39:31.062Z,59.76
2019-04-30T05:42:01.086Z,59.56
2019-04-30T05:44:31.121Z,59.43
2019-04-30T05:47:01.167Z,59.30
2019-04-30T05:49:32.176Z,59.20
2019-04-30T05:52:02.249Z,59.17
2019-04-30T05:54:32.297Z,59.13
2019-04-30T05:57:02.362Z,59.19
2019-04-30T05:59:32.402Z,59.25
2019-04-30T06:02:02.449Z,59.21
2019-04-30T06:04:32.495Z,59.25
2019-04-30T06:07:02.537Z,59.35
2019-04-30T06:09:41.703Z,59.26
2019-04-30T06:12:30.689Z,59.23
2019-04-30T06:15:14.664Z,59.19
2019-04-30T06:17:57.995Z,59.12
2019-04-30T06:20:21.065Z,59.07
2019-04-30T06:22:52.293Z,59.03
2019-04-30T06:25:31.736Z,58.94
2019-04-30T06:27:55.236Z,58.80
2019-04-30T06:30:25.555Z,58.91
2019-04-30T06:32:55.599Z,58.65
2019-04-30T06:35:25.677Z,58.69
2019-04-30T06:37:55.714Z,58.69
2019-04-30T06:40:25.766Z,58.70
2019-04-30T06:42:55.810Z,58.60
2019-04-30T06:45:25.848Z,58.83
2019-04-30T06:47:56.190Z,58.78
2019-04-30T06:50:26.359Z,58.66
2019-04-30T06:52:58.993Z,58.75
2019-04-30T06:55:30.628Z,58.71
2019-04-30T06:58:11.503Z,58.72
2019-04-30T07:00:40.217Z,58.99
2019-04-30T07:03:09.958Z,59.01
2019-04-30T07:05:40.121Z,59.27
2019-04-30T07:08:55.525Z,59.25
2019-04-30T07:11:39.225Z,59.27
2019-04-30T07:14:09.811Z,59.52
2019-04-30T07:16:39.874Z,59.34
2019-04-30T07:19:09.916Z,59.03
2019-04-30T07:21:42.719Z,58.78
2019-04-30T07:24:11.939Z,58.69
2019-04-30T07:26:41.965Z,58.40
2019-04-30T07:29:12.032Z,58.15
2019-04-30T07:31:42.054Z,57.74
2019-04-30T07:34:12.119Z,57.59
2019-04-30T07:36:48.928Z,57.39
2019-04-30T07:39:13.942Z,57.09
2019-04-30T07:41:43.988Z,56.84
2019-04-30T07:44:30.003Z,57.20
2019-04-30T07:46:45.786Z,57.20
2019-04-30T07:49:15.827Z,56.74
2019-04-30T07:51:47.691Z,56.65
2019-04-30T07:54:19.038Z,56.94
2019-04-30T07:56:50.711Z,56.62
2019-04-30T07:59:20.858Z,56.48
2019-04-30T08:02:04.086Z,56.67
2019-04-30T08:04:40.839Z,56.67
2019-04-30T08:07:11.020Z,56.21
2019-04-30T08:09:42.286Z,56.46
2019-04-30T08:12:21.758Z,56.18
2019-04-30T08:14:45.215Z,56.18
2019-04-30T08:17:15.271Z,55.87
2019-04-30T08:19:45.295Z,56.40
2019-04-30T08:22:15.355Z,56.00
2019-04-30T08:24:45.419Z,55.79
2019-04-30T08:27:15.438Z,56.23
2019-04-30T08:29:45.482Z,55.82
2019-04-30T08:32:15.581Z,55.83
2019-04-30T08:34:45.622Z,55.94
2019-04-30T08:37:18.161Z,55.94
2019-04-30T08:39:49.492Z,55.94
2019-04-30T08:42:30.851Z,56.19
2019-04-30T08:44:50.968Z,55.80
2019-04-30T08:47:21.335Z,55.56
2019-04-30T08:49:51.474Z,55.74
2019-04-30T08:52:21.578Z,55.78
2019-04-30T08:54:51.614Z,55.85
2019-04-30T08:57:21.670Z,56.03
2019-04-30T08:59:51.728Z,56.23
2019-04-30T09:02:21.778Z,56.10
2019-04-30T09:04:54.542Z,55.96
2019-04-30T09:07:24.618Z,56.01
2019-04-30T09:09:54.643Z,56.45
2019-04-30T09:12:24.683Z,56.62
2019-04-30T09:14:54.763Z,56.43
2019-04-30T09:17:24.791Z,55.81
2019-04-30T09:19:54.869Z,55.26
2019-04-30T09:22:24.901Z,55.48
2019-04-30T09:24:54.965Z,56.09
2019-04-30T09:27:24.993Z,55.85
2019-04-30T09:29:55.043Z,55.61
2019-04-30T09:32:25.102Z,56.50
2019-04-30T09:34:55.136Z,55.90
2019-04-30T09:37:25.214Z,55.51
2019-04-30T09:39:55.302Z,55.53
2019-04-30T09:42:25.405Z,54.30
2019-04-30T09:44:57.231Z,54.23
2019-04-30T09:47:27.205Z,54.07
2019-04-30T09:49:59.451Z,54.64
2019-04-30T09:52:30.850Z,53.92
2019-04-30T09:55:01.320Z,53.73
2019-04-30T09:57:31.594Z,53.62
2019-04-30T10:00:01.636Z,54.19
2019-04-30T10:02:31.759Z,53.84
2019-04-30T10:05:02.476Z,52.90
2019-04-30T10:07:32.804Z,52.89
2019-04-30T10:10:02.879Z,52.82
2019-04-30T10:12:32.988Z,52.59
2019-04-30T10:15:03.123Z,52.36
2019-04-30T10:17:37.015Z,52.42
2019-04-30T10:20:08.443Z,52.59
2019-04-30T10:22:40.108Z,53.46
2019-04-30T10:25:10.199Z,53.03
2019-04-30T10:27:40.267Z,52.74
2019-04-30T10:30:12.010Z,52.22
2019-04-30T10:32:42.066Z,51.99
2019-04-30T10:35:12.094Z,52.09
2019-04-30T10:37:42.143Z,52.49
2019-04-30T10:40:12.195Z,51.77
2019-04-30T10:42:44.116Z,51.12
2019-04-30T10:45:14.174Z,51.00
2019-04-30T10:47:44.203Z,51.24
2019-04-30T10:50:14.244Z,50.56
2019-04-30T10:52:44.418Z,50.79
2019-04-30T10:55:14.449Z,50.74
2019-04-30T10:57:44.498Z,51.07
2019-04-30T11:00:14.569Z,51.05
2019-04-30T11:02:44.667Z,51.08
2019-04-30T11:05:14.724Z,51.10
2019-04-30T11:07:44.771Z,50.66
2019-04-30T11:10:14.985Z,51.53
2019-04-30T11:12:45.033Z,51.00
2019-04-30T11:15:15.082Z,49.99
2019-04-30T11:17:45.310Z,49.96
2019-04-30T11:20:15.647Z,50.94
2019-04-30T11:22:46.210Z,51.02
2019-04-30T11:25:16.393Z,50.54
2019-04-30T11:27:47.124Z,50.33
2019-04-30T11:30:21.262Z,50.45
2019-04-30T11:32:49.316Z,50.64
2019-04-30T11:35:20.739Z,50.95
2019-04-30T11:37:50.870Z,50.51
2019-04-30T11:40:33.990Z,50.11
2019-04-30T11:42:58.670Z,49.63
2019-04-30T11:46:10.232Z,50.08
2019-04-30T11:48:40.250Z,50.67
2019-04-30T11:51:10.295Z,50.48
2019-04-30T11:53:40.338Z,50.05
2019-04-30T11:56:10.370Z,49.84
2019-04-30T11:58:40.418Z,49.71
2019-04-30T12:01:10.710Z,49.06
2019-04-30T12:03:40.747Z,49.07
2019-04-30T12:06:10.810Z,48.66
2019-04-30T12:08:59.787Z,48.58
2019-04-30T12:11:34.342Z,48.01
2019-04-30T12:14:04.419Z,49.29
2019-04-30T12:16:34.557Z,49.74
2019-04-30T12:19:04.614Z,48.77
2019-04-30T12:21:34.678Z,47.88
2019-04-30T12:24:04.706Z,48.33
2019-04-30T12:26:34.760Z,49.20
2019-04-30T12:29:04.803Z,48.54
2019-04-30T12:31:34.844Z,48.67
2019-04-30T12:34:04.865Z,48.86
2019-04-30T12:36:35.017Z,48.33
2019-04-30T12:39:05.912Z,47.83
2019-04-30T12:41:35.991Z,47.48
2019-04-30T12:44:06.795Z,47.07
2019-04-30T12:46:38.636Z,47.31
2019-04-30T12:49:11.153Z,47.82
2019-04-30T12:52:08.637Z,47.55
2019-04-30T12:54:46.132Z,47.19
2019-04-30T12:57:58.569Z,47.33
2019-04-30T13:00:19.508Z,47.33
2019-04-30T13:02:49.699Z,47.39
2019-04-30T13:05:19.719Z,47.02
2019-04-30T13:07:50.818Z,46.89
2019-04-30T13:10:21.932Z,46.44
2019-04-30T13:12:52.674Z,46.26
2019-04-30T13:15:23.204Z,47.37
2019-04-30T13:17:53.239Z,47.57
2019-04-30T13:20:24.040Z,47.41
2019-04-30T13:22:54.418Z,47.14
2019-04-30T13:25:32.371Z,47.66
2019-04-30T13:28:00.901Z,48.08
2019-04-30T13:30:31.858Z,48.35
2019-04-30T13:33:09.483Z,48.78
2019-04-30T13:35:39.331Z,48.32
2019-04-30T13:38:15.898Z,49.00
2019-04-30T13:40:52.632Z,48.88
2019-04-30T13:43:41.647Z,48.57
2019-04-30T13:46:11.741Z,48.34
2019-04-30T13:48:41.773Z,48.26
2019-04-30T13:51:11.823Z,47.88
2019-04-30T13:53:41.858Z,47.94
2019-04-30T13:56:11.894Z,47.95
2019-04-30T13:58:41.935Z,47.73
2019-04-30T14:01:11.979Z,47.95
2019-04-30T14:03:59.031Z,47.79
2019-04-30T14:06:30.418Z,47.53
2019-04-30T14:09:02.333Z,47.10
2019-04-30T14:11:33.334Z,47.29
2019-04-30T14:14:03.464Z,47.17
2019-04-30T14:16:33.495Z,47.00
2019-04-30T14:19:03.543Z,47.08
2019-04-30T14:21:35.361Z,47.18
2019-04-30T14:24:05.461Z,47.29
2019-04-30T14:26:35.514Z,47.11
2019-04-30T14:29:05.540Z,47.17
2019-04-30T14:31:35.605Z,46.80
2019-04-30T14:34:05.682Z,46.66
2019-04-30T14:36:35.710Z,46.63
2019-04-30T14:39:14.636Z,46.90
2019-04-30T14:41:40.605Z,47.28
2019-04-30T14:44:17.253Z,47.23
2019-04-30T14:46:59.613Z,47.38
2019-04-30T14:49:59.404Z,47.37
2019-04-30T14:52:19.392Z,47.38
2019-04-30T14:55:02.638Z,47.07
2019-04-30T14:57:54.708Z,47.08
2019-04-30T15:00:46.506Z,47.08
2019-04-30T15:03:17.080Z,47.08
2019-04-30T15:05:51.370Z,47.44
2019-04-30T15:08:19.401Z,47.30
2019-04-30T15:10:49.482Z,47.25
2019-04-30T15:13:19.627Z,47.42
2019-04-30T15:15:49.638Z,47.53
2019-04-30T15:18:20.643Z,47.72
2019-04-30T15:20:50.716Z,47.95
2019-04-30T15:23:38.338Z,48.01
2019-04-30T15:26:08.691Z,48.01
2019-04-30T15:28:41.486Z,48.60
2019-04-30T15:31:11.576Z,49.54
2019-04-30T15:33:45.770Z,49.73
2019-04-30T15:36:15.832Z,50.12
2019-04-30T15:39:03.414Z,50.36
2019-04-30T15:41:35.098Z,50.68
2019-04-30T15:44:05.517Z,50.95
2019-04-30T15:46:35.576Z,51.18
2019-04-30T15:49:05.648Z,51.33
2019-04-30T15:51:35.702Z,51.40
2019-04-30T15:54:05.877Z,51.34
2019-04-30T15:56:38.255Z,51.23
2019-04-30T15:59:29.642Z,51.25
2019-04-30T16:02:03.962Z,51.40
2019-04-30T16:04:59.890Z,51.53
2019-04-30T16:07:29.987Z,51.57
2019-04-30T16:10:16.347Z,51.80
2019-04-30T16:12:58.977Z,51.77
2019-04-30T16:15:29.751Z,52.01
2019-04-30T16:18:01.149Z,52.17
2019-04-30T16:20:31.233Z,52.23
2019-04-30T16:23:01.359Z,52.27
2019-04-30T16:25:31.382Z,52.38
2019-04-30T16:28:01.496Z,52.59
2019-04-30T16:30:31.518Z,52.74
2019-04-30T16:33:01.582Z,53.13
2019-04-30T16:35:31.694Z,53.64
2019-04-30T16:38:01.750Z,53.91
2019-04-30T16:40:31.890Z,54.58
2019-04-30T16:43:01.921Z,54.97
2019-04-30T16:45:33.051Z,55.46
2019-04-30T16:48:03.185Z,55.84
2019-04-30T16:50:33.268Z,56.12
2019-04-30T16:53:03.331Z,56.30
2019-04-30T16:55:34.333Z,56.40
2019-04-30T16:58:04.387Z,56.38
2019-04-30T17:00:34.504Z,56.48
2019-04-30T17:03:09.231Z,56.71
2019-04-30T17:05:46.720Z,56.91
2019-04-30T17:08:41.551Z,57.00
2019-04-30T17:11:30.531Z,56.84
2019-04-30T17:14:03.271Z,56.79
2019-04-30T17:16:33.311Z,56.82
2019-04-30T17:19:03.388Z,56.71
2019-04-30T17:21:33.422Z,56.87
2019-04-30T17:24:04.499Z,56.58
2019-04-30T17:26:34.547Z,56.66
2019-04-30T17:29:04.573Z,56.58
2019-04-30T17:31:34.633Z,56.65
2019-04-30T17:34:04.669Z,56.66
2019-04-30T17:36:34.731Z,56.53
2019-04-30T17:39:06.196Z,56.52
2019-04-30T17:41:36.482Z,56.71
2019-04-30T17:44:06.525Z,56.69
2019-04-30T17:46:38.466Z,56.77
2019-04-30T17:49:10.013Z,56.97
2019-04-30T17:51:41.212Z,56.97
2019-04-30T17:54:14.593Z,56.92
2019-04-30T17:56:45.031Z,56.95
2019-04-30T17:59:15.053Z,56.88
2019-04-30T18:01:51.311Z,56.79
2019-04-30T18:04:22.205Z,56.97
2019-04-30T18:06:52.390Z,57.22
2019-04-30T18:09:22.429Z,57.32
2019-04-30T18:11:52.534Z,57.39
2019-04-30T18:14:22.583Z,57.36
2019-04-30T18:16:52.627Z,57.41
2019-04-30T18:19:46.708Z,57.43
2019-04-30T18:22:30.269Z,57.59
2019-04-30T18:25:20.278Z,57.69
2019-04-30T18:27:54.070Z,57.77
2019-04-30T18:30:29.078Z,57.78
2019-04-30T18:32:59.164Z,57.70
2019-04-30T18:35:29.295Z,57.73
2019-04-30T18:37:59.336Z,57.67
2019-04-30T18:40:29.652Z,57.71
2019-04-30T18:42:59.833Z,57.85
2019-04-30T18:45:29.890Z,57.97
2019-04-30T18:48:01.688Z,57.85
2019-04-30T18:50:31.898Z,57.76
2019-04-30T18:53:04.493Z,57.77
2019-04-30T18:55:34.647Z,57.68
2019-04-30T18:58:04.821Z,57.70
2019-04-30T19:00:40.865Z,57.72
2019-04-30T19:03:10.947Z,57.78
2019-04-30T19:05:42.784Z,57.67
2019-04-30T19:08:25.059Z,57.60
2019-04-30T19:11:06.417Z,57.52
2019-04-30T19:13:54.051Z,57.57
2019-04-30T19:16:46.078Z,57.42
2019-04-30T19:19:37.860Z,57.40
2019-04-30T19:22:09.133Z,57.38
2019-04-30T19:24:39.266Z,57.31
2019-04-30T19:27:09.413Z,57.40
2019-04-30T19:29:39.455Z,57.38
2019-04-30T19:32:09.546Z,57.32
2019-04-30T19:34:39.536Z,57.31
2019-04-30T19:37:09.555Z,57.34
2019-04-30T19:39:39.599Z,57.39
2019-04-30T19:42:09.659Z,57.47
2019-04-30T19:44:39.749Z,57.41
2019-04-30T19:47:09.808Z,57.40
2019-04-30T19:49:40.759Z,57.31
2019-04-30T19:52:11.785Z,57.27
2019-04-30T19:54:42.229Z,57.17
2019-04-30T19:57:12.295Z,57.08
2019-04-30T19:59:42.335Z,56.99
2019-04-30T20:02:12.371Z,56.93
2019-04-30T20:04:42.441Z,56.85
2019-04-30T20:07:12.472Z,56.78
2019-04-30T20:09:43.215Z,56.75
2019-04-30T20:12:13.393Z,56.76
2019-04-30T20:14:43.432Z,56.66
2019-04-30T20:17:13.489Z,56.64
2019-04-30T20:19:43.547Z,56.55
2019-04-30T20:22:13.934Z,56.54
2019-04-30T20:24:44.139Z,56.59
2019-04-30T20:27:14.184Z,56.50
2019-04-30T20:29:44.277Z,56.45
2019-04-30T20:32:14.356Z,56.45
2019-04-30T20:34:44.445Z,56.69
2019-04-30T20:37:14.496Z,56.71
2019-04-30T20:40:01.520Z,56.68
2019-04-30T20:42:31.550Z,56.69
2019-04-30T20:45:03.837Z,56.82
2019-04-30T20:47:34.071Z,56.70
2019-04-30T20:50:04.149Z,56.89
2019-04-30T20:52:34.188Z,57.02
2019-04-30T20:55:04.271Z,57.04
2019-04-30T20:57:34.326Z,57.02
2019-04-30T21:00:04.687Z,56.93
2019-04-30T21:02:38.588Z,56.92
2019-04-30T21:05:08.111Z,56.97
2019-04-30T21:07:38.177Z,56.97
2019-04-30T21:10:10.161Z,57.00
2019-04-30T21:12:39.958Z,57.13
2019-04-30T21:15:09.998Z,57.03
2019-04-30T21:17:40.125Z,57.01
2019-04-30T21:20:10.184Z,57.05
2019-04-30T21:22:41.134Z,57.17
2019-04-30T21:25:12.490Z,57.11
2019-04-30T21:27:42.429Z,57.30
2019-04-30T21:30:12.485Z,57.30
2019-04-30T21:33:13.650Z,57.43
2019-04-30T21:36:02.617Z,57.61
2019-04-30T21:38:32.680Z,57.95
2019-04-30T21:41:02.706Z,57.92
2019-04-30T21:43:32.782Z,58.21
2019-04-30T21:46:02.936Z,58.24
2019-04-30T21:48:32.998Z,58.45
2019-04-30T21:51:03.078Z,58.64
2019-04-30T21:53:33.112Z,58.71
2019-04-30T21:56:03.164Z,58.92
2019-04-30T21:58:33.215Z,58.99
2019-04-30T22:01:28.496Z,58.98
2019-04-30T22:03:58.623Z,59.10
2019-04-30T22:06:29.621Z,59.27
2019-04-30T22:08:59.789Z,59.32
2019-04-30T22:11:29.859Z,59.38
2019-04-30T22:13:59.906Z,59.46
2019-04-30T22:16:30.904Z,59.52
2019-04-30T22:19:00.945Z,59.49
2019-04-30T22:21:30.984Z,59.53
2019-04-30T22:24:01.030Z,59.55
2019-04-30T22:26:31.051Z,59.59
2019-04-30T22:29:02.073Z,59.54
2019-04-30T22:31:32.098Z,59.63
2019-04-30T22:34:02.149Z,59.80
2019-04-30T22:36:40.107Z,59.45
2019-04-30T22:39:29.678Z,59.45
2019-04-30T22:42:29.751Z,59.98
2019-04-30T22:45:01.467Z,60.05
2019-04-30T22:47:32.390Z,60.16
2019-04-30T22:50:02.447Z,60.23
2019-04-30T22:52:33.474Z,60.23
2019-04-30T22:55:03.588Z,60.36
2019-04-30T22:57:33.639Z,60.50
2019-04-30T23:00:04.226Z,60.19
2019-04-30T23:02:55.349Z,60.19
2019-04-30T23:05:25.385Z,60.34
2019-04-30T23:07:55.555Z,60.22
2019-04-30T23:10:26.555Z,60.15
2019-04-30T23:12:56.622Z,60.15
2019-04-30T23:15:26.658Z,60.23
2019-04-30T23:17:56.779Z,60.19
2019-04-30T23:20:26.811Z,60.39
2019-04-30T23:22:56.892Z,60.27
2019-04-30T23:25:26.935Z,60.32
2019-04-30T23:27:57.094Z,60.40
2019-04-30T23:30:27.140Z,60.46
2019-04-30T23:32:57.195Z,60.64
2019-04-30T23:35:27.239Z,60.57
2019-04-30T23:37:57.434Z,60.53
2019-04-30T23:40:28.913Z,60.53
2019-04-30T23:42:58.972Z,60.24
2019-04-30T23:45:29.006Z,60.28
2019-04-30T23:47:59.075Z,60.21
2019-04-30T23:50:29.124Z,60.47
2019-04-30T23:52:59.293Z,60.84
2019-04-30T23:55:29.350Z,60.53
2019-04-30T23:57:59.395Z,60.36
